Overview Statistics Trail Chart Weather Telemetry Raw packets
 

This is the latest recevied weather packets stored in our database for station/object W5ADC. If no packets are shown the sender has not sent any weather packets the latest 10 day(s).

<< 91 92 93 94 95 96 97 >>
Time Temp. Humidity Pressure Rain* Wind** Luminosity Snow
1787937444 35.56° C 46% 1014.8 hPa 0 mm - 717 W/m² -
1787937140 35.56° C 47% 1014.9 hPa 0 mm - 705 W/m² -
1787936840 35° C 48% 1014.8 hPa 0 mm - 697 W/m² -
1787936535 35° C 48% 1014.8 hPa 0 mm - 687 W/m² -
1787936233 35° C 48% 1014.7 hPa 0 mm - 681 W/m² -
1787935930 35° C 51% 1014.8 hPa 0 mm - 662 W/m² -
1787935624 34.44° C 51% 1015 hPa 0 mm - 659 W/m² -
1787935321 33.89° C 52% 1015 hPa 0 mm - 648 W/m² -
1787935015 35° C 52% 1015 hPa 0 mm - 637 W/m² -
1787934711 34.44° C 53% 1014.9 hPa 0 mm - 630 W/m² -
1787934410 34.44° C 51% 1015.1 hPa 0 mm - 619 W/m² -
1787934110 33.89° C 52% 1015 hPa 0 mm - 606 W/m² -
1787933808 33.89° C 54% 1014.9 hPa 0 mm - 595 W/m² -
1787933504 34.44° C 55% 1015 hPa 0 mm - 580 W/m² -
1787933198 33.89° C 55% 1014.9 hPa 0 mm - 569 W/m² -
1787932893 33.33° C 58% 1015 hPa 0 mm - 550 W/m² -
1787932592 33.89° C 57% 1015 hPa 0 mm - 540 W/m² -
1787932291 33.33° C 58% 1014.9 hPa 0 mm - 525 W/m² -
1787931986 32.78° C 60% 1015 hPa 0 mm - 508 W/m² -
1787931680 32.22° C 60% 1015 hPa 0 mm - 500 W/m² -
1787931375 32.22° C 61% 1014.8 hPa 0 mm - 482 W/m² -
1787931069 32.78° C 61% 1014.9 hPa 0 mm - 468 W/m² -
1787930768 32.78° C 61% 1014.8 hPa 0 mm - 454 W/m² -
1787930463 32.22° C 62% 1014.9 hPa 0 mm - 438 W/m² -
1787930158 32.22° C 62% 1014.8 hPa 0 mm - 424 W/m² -

* Rain latest hour (hover to see other rain measurements)
** Current wind speed in m/s (hover to see current wind gust speed)